createdAt,value
2022-08-22T07:11:21.801Z,100487.97
2022-08-22T07:14:45.626Z,100481.34
2022-08-22T07:17:51.615Z,100485.59
2022-08-22T07:21:04.395Z,100485.94
2022-08-22T07:24:07.722Z,100494.09
2022-08-22T07:27:52.546Z,100492.13
2022-08-22T07:30:57.839Z,100504.28
2022-08-22T07:34:40.620Z,100506.72
2022-08-22T07:37:52.099Z,100499.59
2022-08-22T07:41:10.903Z,100498.94
2022-08-22T07:44:23.461Z,100501.31
2022-08-22T07:47:34.839Z,100503.13
2022-08-22T07:50:53.430Z,100504.66
2022-08-22T07:54:02.622Z,100505.53
2022-08-22T07:57:15.360Z,100502.13
2022-08-22T08:00:20.457Z,100499.66
2022-08-22T08:03:25.916Z,100503.41
2022-08-22T08:06:32.046Z,100497.56
2022-08-22T08:09:39.238Z,100500.28
2022-08-22T08:12:52.701Z,100501.91
2022-08-22T08:16:08.364Z,100501.19
2022-08-22T08:19:12.312Z,100508.31
2022-08-22T08:22:19.140Z,100503.97
2022-08-22T08:25:27.652Z,100504.69
2022-08-22T08:28:37.592Z,100505.63
2022-08-22T08:31:44.717Z,100500.34
2022-08-22T08:34:47.343Z,100508.38
2022-08-22T08:37:59.271Z,100497.13
2022-08-22T08:41:22.700Z,100505.06
2022-08-22T08:44:49.945Z,100509.81
2022-08-22T08:48:27.324Z,100506.38
2022-08-22T08:52:10.277Z,100504.69
2022-08-22T08:55:31.037Z,100503.81
2022-08-22T08:58:41.562Z,100498.59
2022-08-22T09:02:06.114Z,100497.00
2022-08-22T09:05:19.523Z,100494.88
2022-08-22T09:08:44.847Z,100495.50
2022-08-22T09:12:24.874Z,100484.66
2022-08-22T09:16:04.506Z,100488.81
2022-08-22T09:19:27.224Z,100487.66
2022-08-22T09:22:54.048Z,100494.56
2022-08-22T09:26:17.257Z,100490.94
2022-08-22T09:29:35.893Z,100496.44
2022-08-22T09:32:57.359Z,100491.53
2022-08-22T09:36:05.103Z,100488.28
2022-08-22T09:39:13.803Z,100485.78
2022-08-22T09:42:50.298Z,100483.63
2022-08-22T09:46:15.542Z,100474.88
2022-08-22T09:49:26.255Z,100472.59
2022-08-22T09:53:03.173Z,100470.44
2022-08-22T09:56:11.596Z,100476.06
2022-08-22T09:59:40.636Z,100478.84
2022-08-22T10:03:01.554Z,100470.22
2022-08-22T10:06:15.730Z,100479.38
2022-08-22T10:09:31.497Z,100470.09
2022-08-22T10:12:44.796Z,100470.97
2022-08-22T10:16:16.411Z,100471.28
2022-08-22T10:19:34.246Z,100471.63
2022-08-22T10:22:47.459Z,100464.75
2022-08-22T10:25:54.259Z,100475.13
2022-08-22T10:29:09.245Z,100478.50
2022-08-22T10:32:47.933Z,100481.22
2022-08-22T10:36:05.304Z,100481.78
2022-08-22T10:39:12.011Z,100475.81
2022-08-22T10:42:18.654Z,100476.34
2022-08-22T10:45:36.802Z,100478.44
2022-08-22T10:48:42.428Z,100473.72
2022-08-22T10:51:54.074Z,100471.84
2022-08-22T10:55:00.856Z,100472.34
2022-08-22T10:58:11.656Z,100475.84
2022-08-22T11:01:37.823Z,100478.59
2022-08-22T11:05:20.172Z,100479.94
2022-08-22T11:08:45.999Z,100469.84
2022-08-22T11:12:16.593Z,100468.38
2022-08-22T11:15:57.481Z,100468.63
2022-08-22T11:19:15.202Z,100477.09
2022-08-22T11:22:48.733Z,100474.59
2022-08-22T11:26:30.040Z,100466.16
2022-08-22T11:29:55.057Z,100466.75
2022-08-22T11:33:17.999Z,100482.44
2022-08-22T11:36:26.351Z,100481.56
2022-08-22T11:40:08.094Z,100482.19
2022-08-22T11:43:20.037Z,100479.56
2022-08-22T11:46:31.256Z,100479.19
2022-08-22T11:49:33.524Z,100482.66
2022-08-22T11:53:01.684Z,100480.69
2022-08-22T11:56:19.376Z,100470.59
2022-08-22T11:59:30.187Z,100478.56
2022-08-22T12:03:02.763Z,100482.19
2022-08-22T12:06:50.126Z,100487.41
2022-08-22T12:09:58.787Z,100479.94
2022-08-22T12:13:14.573Z,100487.91
2022-08-22T12:16:47.324Z,100477.22
2022-08-22T12:20:16.050Z,100482.19
2022-08-22T12:23:43.639Z,100477.78
2022-08-22T12:27:13.015Z,100485.72
2022-08-22T12:30:32.376Z,100486.94
2022-08-22T12:34:12.460Z,100476.06
2022-08-22T12:37:24.376Z,100478.03
2022-08-22T12:40:56.262Z,100472.59
2022-08-22T12:44:20.416Z,100470.84
2022-08-22T12:47:36.230Z,100475.84
2022-08-22T12:51:17.211Z,100475.31
2022-08-22T12:54:37.537Z,100473.03
2022-08-22T12:58:06.868Z,100470.72
2022-08-22T13:01:11.138Z,100465.38
2022-08-22T13:04:33.240Z,100471.09
2022-08-22T13:07:38.450Z,100476.09
2022-08-22T13:10:50.003Z,100475.09
2022-08-22T13:13:56.462Z,100471.00
2022-08-22T13:17:15.233Z,100475.22
2022-08-22T13:20:37.870Z,100475.94
2022-08-22T13:23:53.276Z,100466.50
2022-08-22T13:27:00.431Z,100463.53
2022-08-22T13:30:08.052Z,100470.09
2022-08-22T13:33:24.902Z,100469.84
2022-08-22T13:36:28.096Z,100475.94
2022-08-22T13:39:39.867Z,100468.97
2022-08-22T13:42:48.195Z,100472.31
2022-08-22T13:45:55.776Z,100460.41
2022-08-22T13:49:01.283Z,100464.50
2022-08-22T13:52:30.597Z,100472.59
2022-08-22T13:55:43.076Z,100473.06
2022-08-22T13:58:48.430Z,100464.50
2022-08-22T14:02:07.192Z,100464.13
2022-08-22T14:05:16.613Z,100465.28
2022-08-22T14:08:31.707Z,100456.19
2022-08-22T14:11:44.834Z,100455.66
2022-08-22T14:14:54.958Z,100452.31
2022-08-22T14:18:12.212Z,100448.97
2022-08-22T14:21:54.083Z,100447.47
2022-08-22T14:25:22.383Z,100443.88
2022-08-22T14:28:30.961Z,100436.75
2022-08-22T14:31:34.112Z,100438.09
2022-08-22T14:34:40.323Z,100426.78
2022-08-22T14:37:51.576Z,100431.59
2022-08-22T14:40:57.979Z,100437.41
2022-08-22T14:44:17.530Z,100438.03
2022-08-22T14:47:54.130Z,100437.94
2022-08-22T14:50:55.131Z,100441.16
2022-08-22T14:54:21.443Z,100446.28
2022-08-22T14:57:24.360Z,100445.41
2022-08-22T15:00:38.909Z,100440.81
2022-08-22T15:03:42.552Z,100434.25
2022-08-22T15:06:57.897Z,100451.72
2022-08-22T15:10:20.628Z,100443.81
2022-08-22T15:13:25.195Z,100441.63
2022-08-22T15:16:41.808Z,100439.59
2022-08-22T15:19:47.297Z,100439.50
2022-08-22T15:22:57.660Z,100438.34
2022-08-22T15:26:03.884Z,100434.28
2022-08-22T15:29:17.805Z,100436.25
2022-08-22T15:32:31.327Z,100427.28
2022-08-22T15:35:39.026Z,100426.53
2022-08-22T15:38:47.955Z,100437.38
2022-08-22T15:41:50.964Z,100432.00
2022-08-22T15:44:55.712Z,100429.28
2022-08-22T15:48:00.140Z,100423.81
2022-08-22T15:51:33.421Z,100413.53
2022-08-22T15:54:42.668Z,100424.09
2022-08-22T15:58:13.083Z,100428.81
2022-08-22T16:01:22.578Z,100424.50
2022-08-22T16:04:49.850Z,100427.88
2022-08-22T16:07:58.489Z,100430.28
2022-08-22T16:11:03.667Z,100423.09
2022-08-22T16:14:45.258Z,100418.34
2022-08-22T16:17:53.322Z,100415.38
2022-08-22T16:21:28.057Z,100423.19
2022-08-22T16:24:38.022Z,100424.34
2022-08-22T16:27:52.070Z,100424.44
2022-08-22T16:30:56.140Z,100437.59
2022-08-22T16:34:18.399Z,100433.63
2022-08-22T16:37:42.604Z,100430.75
2022-08-22T16:40:47.597Z,100432.38
2022-08-22T16:44:16.630Z,100431.84
2022-08-22T16:47:41.739Z,100447.75
2022-08-22T16:50:44.023Z,100447.59
2022-08-22T16:53:49.101Z,100462.00
2022-08-22T16:57:23.567Z,100452.66
2022-08-22T17:00:34.960Z,100450.38
2022-08-22T17:04:07.779Z,100453.75
2022-08-22T17:07:37.225Z,100447.59
2022-08-22T17:10:39.153Z,100452.69
2022-08-22T17:13:48.354Z,100452.69
2022-08-22T17:17:12.077Z,100460.25
2022-08-22T17:20:32.724Z,100472.41
2022-08-22T17:24:00.865Z,100476.66
2022-08-22T17:27:12.401Z,100470.66
2022-08-22T17:30:29.327Z,100475.25
2022-08-22T17:34:00.661Z,100475.63
2022-08-22T17:37:07.842Z,100480.78
2022-08-22T17:40:13.928Z,100484.72
2022-08-22T17:43:48.779Z,100486.59
2022-08-22T17:47:18.921Z,100492.25
2022-08-22T17:50:54.136Z,100485.38
2022-08-22T17:54:20.061Z,100488.44
2022-08-22T17:57:35.255Z,100480.59
2022-08-22T18:00:47.885Z,100489.72
2022-08-22T18:03:57.174Z,100506.06
2022-08-22T18:07:28.770Z,100506.84
2022-08-22T18:10:40.113Z,100514.78
2022-08-22T18:13:56.931Z,100514.25
2022-08-22T18:17:00.840Z,100521.75
2022-08-22T18:20:23.000Z,100536.56
2022-08-22T18:23:45.616Z,100531.72
2022-08-22T18:26:58.415Z,100542.81
2022-08-22T18:30:21.487Z,100545.06
2022-08-22T18:33:48.881Z,100547.56
2022-08-22T18:37:11.836Z,100542.81
2022-08-22T18:40:31.044Z,100540.03
2022-08-22T18:43:36.193Z,100539.47
2022-08-22T18:46:38.378Z,100546.19
2022-08-22T18:49:44.448Z,100544.94
2022-08-22T18:52:46.646Z,100539.00
2022-08-22T18:55:58.336Z,100547.47
2022-08-22T18:59:09.055Z,100540.56
2022-08-22T19:02:55.588Z,100557.31
2022-08-22T19:06:32.295Z,100538.94
2022-08-22T19:10:01.275Z,100538.53
2022-08-22T19:13:10.694Z,100541.66
2022-08-22T19:16:32.223Z,100544.94
2022-08-22T19:20:35.175Z,100543.78
2022-08-22T19:23:43.639Z,100543.91
2022-08-22T19:26:48.405Z,100539.13
2022-08-22T19:29:55.120Z,100544.53
2022-08-22T19:33:03.755Z,100538.63
2022-08-22T19:36:10.875Z,100542.75
2022-08-22T19:39:50.360Z,100550.47
2022-08-22T19:43:16.642Z,100550.16
2022-08-22T19:46:38.824Z,100548.91
2022-08-22T19:50:05.915Z,100534.03
2022-08-22T19:53:19.411Z,100521.09
2022-08-22T19:56:49.719Z,100539.91
2022-08-22T20:00:17.074Z,100542.72
2022-08-22T20:03:44.887Z,100540.19
2022-08-22T20:07:14.869Z,100535.28
2022-08-22T20:10:30.768Z,100532.81
2022-08-22T20:13:34.912Z,100539.66
2022-08-22T20:17:14.736Z,100541.50
2022-08-22T20:20:27.922Z,100524.75
2022-08-22T20:23:32.753Z,100545.22
2022-08-22T20:26:47.466Z,100538.00
2022-08-22T20:30:15.490Z,100540.28
2022-08-22T20:33:29.101Z,100537.66
2022-08-22T20:36:31.505Z,100539.13
2022-08-22T20:39:47.515Z,100535.81
2022-08-22T20:43:10.574Z,100536.28
2022-08-22T20:47:01.567Z,100533.75
2022-08-22T20:50:12.053Z,100533.28
2022-08-22T20:53:20.627Z,100529.75
2022-08-22T20:56:53.599Z,100535.34
2022-08-22T21:00:06.504Z,100535.69
2022-08-22T21:03:21.611Z,100537.00
2022-08-22T21:06:42.026Z,100532.56
2022-08-22T21:10:20.156Z,100530.97
2022-08-22T21:13:30.364Z,100531.13
2022-08-22T21:16:33.547Z,100534.22
2022-08-22T21:19:35.748Z,100537.03
2022-08-22T21:22:38.255Z,100535.34
2022-08-22T21:26:08.515Z,100531.06
2022-08-22T21:29:10.581Z,100526.91
2022-08-22T21:32:32.148Z,100541.47
2022-08-22T21:35:34.442Z,100526.25
2022-08-22T21:38:37.497Z,100536.31
2022-08-22T21:42:03.088Z,100530.22
2022-08-22T21:45:10.372Z,100534.06
2022-08-22T21:48:35.928Z,100537.88
2022-08-22T21:51:45.625Z,100536.28
2022-08-22T21:54:47.770Z,100543.72
2022-08-22T21:58:12.553Z,100545.81
2022-08-22T22:01:33.687Z,100542.53
2022-08-22T22:04:35.942Z,100538.47
2022-08-22T22:07:42.404Z,100543.34
2022-08-22T22:10:46.536Z,100541.94
2022-08-22T22:13:49.038Z,100528.56
2022-08-22T22:16:51.313Z,100527.78
2022-08-22T22:19:54.157Z,100520.03
2022-08-22T22:22:56.538Z,100517.84
2022-08-22T22:26:01.786Z,100521.47
2022-08-22T22:29:04.332Z,100522.44
2022-08-22T22:32:07.496Z,100518.00
2022-08-22T22:35:09.888Z,100504.47
2022-08-22T22:38:19.397Z,100501.03
2022-08-22T22:41:25.646Z,100496.59
2022-08-22T22:44:27.948Z,100503.75
2022-08-22T22:47:31.759Z,100507.59
2022-08-22T22:50:37.887Z,100506.69
2022-08-22T22:53:42.778Z,100495.34
2022-08-22T22:56:47.903Z,100498.84
2022-08-22T22:59:50.527Z,100498.78
2022-08-22T23:02:53.228Z,100500.69
2022-08-22T23:05:55.409Z,100498.03
2022-08-22T23:08:58.221Z,100504.47
2022-08-22T23:12:02.889Z,100504.63
2022-08-22T23:15:06.603Z,100504.69
2022-08-22T23:18:08.936Z,100495.69
2022-08-22T23:21:20.155Z,100493.72
2022-08-22T23:24:23.234Z,100491.25
2022-08-22T23:27:25.505Z,100498.69
2022-08-22T23:30:27.944Z,100517.59
2022-08-22T23:33:30.023Z,100512.38
2022-08-22T23:36:32.863Z,100519.50
2022-08-22T23:39:36.039Z,100506.06
2022-08-22T23:42:38.544Z,100512.63
2022-08-22T23:45:43.455Z,100515.44
2022-08-22T23:48:46.618Z,100514.63
2022-08-22T23:51:50.044Z,100506.59
2022-08-22T23:54:54.627Z,100510.63
2022-08-22T23:57:58.129Z,100503.66
